Time;durP1;ratioP1;P1;durP2;ratioP2;P2;SDS_P1;SDS_P2;PMS_P1;PMS_P2;Temp;Humidity;BMP_temperature;BMP_pressure;BME280_temperature;BME280_humidity;BME280_pressure;Samples;Min_cycle;Max_cycle;Signal;HPM_P1;HPM_P2
2023/03/17 00:01:15;;;;;;;3.00;2.70;;;8.20;29.50;;;;;;10436356;28;20602;-72
2023/03/17 00:06:24;;;;;;;3.10;2.80;;;8.20;29.50;;;;;;10435807;28;20229;-72
2023/03/17 00:11:29;;;;;;;2.90;2.70;;;8.10;29.50;;;;;;10437419;28;20232;-71
2023/03/17 00:16:36;;;;;;;2.93;2.73;;;8.10;29.50;;;;;;10435728;28;20745;-72
2023/03/17 00:21:40;;;;;;;2.97;2.73;;;8.10;29.40;;;;;;10436583;28;20747;-72
2023/03/17 00:26:45;;;;;;;2.30;2.10;;;8.00;29.30;;;;;;10436827;28;20320;-72
2023/03/17 00:31:49;;;;;;;2.73;2.53;;;8.00;29.50;;;;;;10431085;28;20237;-72
2023/03/17 00:36:53;;;;;;;2.87;2.67;;;7.90;29.40;;;;;;10436915;28;20747;-72
2023/03/17 00:41:58;;;;;;;2.60;2.40;;;7.90;29.40;;;;;;10437211;28;20237;-71
2023/03/17 00:47:02;;;;;;;2.60;2.23;;;7.80;29.40;;;;;;10433396;28;20718;-72
2023/03/17 00:52:06;;;;;;;2.30;2.10;;;7.80;29.40;;;;;;10434060;28;20217;-72
2023/03/17 00:57:11;;;;;;;2.20;2.10;;;7.70;29.40;;;;;;10433600;28;20312;-71
2023/03/17 01:02:14;;;;;;;2.20;2.10;;;7.70;29.50;;;;;;10433904;28;20225;-71
2023/03/17 01:07:17;;;;;;;2.13;2.03;;;7.60;29.40;;;;;;10433920;28;20228;-70
2023/03/17 01:12:22;;;;;;;2.60;2.40;;;7.60;29.40;;;;;;10434101;28;20236;-71
2023/03/17 01:17:25;;;;;;;2.00;1.90;;;7.50;29.40;;;;;;10432728;28;20740;-71
2023/03/17 01:22:28;;;;;;;2.10;2.00;;;7.50;29.40;;;;;;10433922;28;20605;-70
2023/03/17 01:27:36;;;;;;;1.63;1.53;;;7.40;29.40;;;;;;10434379;28;20325;-71
2023/03/17 01:32:39;;;;;;;2.00;1.90;;;7.40;29.60;;;;;;10432940;28;20279;-71
2023/03/17 01:37:42;;;;;;;1.93;1.77;;;7.30;29.50;;;;;;10433919;28;20274;-70
2023/03/17 01:42:49;;;;;;;2.33;2.13;;;7.30;29.50;;;;;;10430189;28;20245;-71
2023/03/17 01:47:52;;;;;;;1.83;1.73;;;7.30;29.60;;;;;;10435168;28;20239;-70
2023/03/17 01:52:56;;;;;;;2.97;2.30;;;7.20;29.40;;;;;;10430821;28;20237;-71
2023/03/17 01:58:01;;;;;;;1.80;1.70;;;7.10;29.40;;;;;;10431611;28;20229;-70
2023/03/17 02:03:05;;;;;;;2.10;1.90;;;7.10;29.50;;;;;;10432287;28;20231;-71
2023/03/17 02:08:11;;;;;;;2.70;2.07;;;7.00;29.50;;;;;;10431386;28;20234;-70
2023/03/17 02:13:16;;;;;;;2.40;2.20;;;6.90;29.50;;;;;;10428988;28;20229;-71
2023/03/17 02:18:22;;;;;;;2.20;2.10;;;6.80;29.40;;;;;;10435829;28;20735;-71
2023/03/17 02:23:27;;;;;;;2.40;2.20;;;6.70;29.50;;;;;;10433290;28;20233;-71
2023/03/17 02:28:31;;;;;;;2.70;2.50;;;6.60;29.50;;;;;;10429078;28;20239;-71
2023/03/17 02:33:34;;;;;;;2.67;2.47;;;6.60;29.60;;;;;;10432923;28;20584;-71
2023/03/17 02:38:39;;;;;;;2.00;1.80;;;6.50;29.60;;;;;;10430645;28;20796;-71
2023/03/17 02:43:42;;;;;;;1.90;1.80;;;6.50;29.80;;;;;;10431770;28;20623;-71
2023/03/17 02:48:48;;;;;;;3.07;2.20;;;6.50;29.80;;;;;;10433123;28;20278;-71
2023/03/17 02:53:52;;;;;;;2.50;2.30;;;6.40;29.90;;;;;;10431377;28;20233;-71
2023/03/17 02:58:55;;;;;;;2.67;2.47;;;6.40;30.00;;;;;;10434194;28;20225;-71
2023/03/17 03:03:59;;;;;;;2.30;2.20;;;6.40;30.00;;;;;;10429913;28;20236;-71
2023/03/17 03:09:04;;;;;;;2.83;2.40;;;6.30;30.00;;;;;;10427878;28;20613;-72
2023/03/17 03:14:08;;;;;;;2.60;2.40;;;6.30;30.00;;;;;;10430324;28;20709;-71
2023/03/17 03:19:11;;;;;;;2.50;2.30;;;6.20;30.00;;;;;;10436691;28;20723;-71
2023/03/17 03:24:15;;;;;;;2.40;2.20;;;6.10;29.90;;;;;;10440773;28;20226;-71
2023/03/17 03:29:19;;;;;;;2.40;2.20;;;6.10;30.00;;;;;;10438372;28;20225;-71
2023/03/17 03:34:22;;;;;;;2.10;1.93;;;6.00;30.00;;;;;;10435519;28;20250;-71
2023/03/17 03:39:26;;;;;;;2.07;1.97;;;5.90;30.00;;;;;;10440454;28;20235;-71
2023/03/17 03:44:30;;;;;;;2.33;2.13;;;5.80;30.00;;;;;;10438562;28;20716;-71
2023/03/17 03:49:33;;;;;;;2.67;2.47;;;5.80;30.10;;;;;;10437663;28;20570;-71
2023/03/17 03:54:38;;;;;;;2.40;2.20;;;5.80;30.20;;;;;;10439813;28;20237;-71
2023/03/17 03:59:41;;;;;;;2.17;2.07;;;5.80;30.50;;;;;;10439549;28;20228;-70
2023/03/17 04:04:45;;;;;;;2.40;1.90;;;5.80;30.30;;;;;;10425613;28;20254;-71
2023/03/17 04:09:50;;;;;;;2.43;2.23;;;5.70;30.20;;;;;;10437715;28;20232;-71
2023/03/17 04:14:53;;;;;;;1.97;1.87;;;5.70;30.30;;;;;;10438168;28;20660;-71
2023/03/17 04:19:57;;;;;;;1.97;1.83;;;5.70;30.20;;;;;;10433304;28;20220;-71
2023/03/17 04:25:01;;;;;;;2.20;2.10;;;5.60;30.10;;;;;;10434766;28;20540;-71
2023/03/17 04:30:05;;;;;;;2.93;2.27;;;5.60;30.40;;;;;;10434333;28;20243;-71
2023/03/17 04:35:12;;;;;;;2.13;1.93;;;5.60;30.40;;;;;;10430750;28;20232;-71
2023/03/17 04:40:18;;;;;;;2.13;1.97;;;5.50;30.60;;;;;;10435101;28;20228;-71
2023/03/17 04:45:21;;;;;;;2.40;2.20;;;5.50;30.60;;;;;;10435156;28;20247;-71
2023/03/17 04:50:25;;;;;;;2.33;2.13;;;5.50;30.60;;;;;;10435894;28;20240;-74
2023/03/17 04:55:29;;;;;;;5.43;3.90;;;5.50;30.60;;;;;;10435434;28;20232;-71
2023/03/17 05:00:37;;;;;;;6.73;4.73;;;5.50;30.70;;;;;;10431758;28;20237;-72
2023/03/17 05:05:40;;;;;;;3.40;3.10;;;5.50;30.60;;;;;;10433907;28;20225;-72
2023/03/17 05:10:45;;;;;;;2.87;2.63;;;5.50;30.70;;;;;;10433055;28;20243;-71
2023/03/17 05:15:48;;;;;;;2.97;2.47;;;5.50;30.80;;;;;;10424305;28;20647;-72
2023/03/17 05:20:52;;;;;;;4.00;2.30;;;5.50;30.90;;;;;;10431294;28;20236;-71
2023/03/17 05:25:57;;;;;;;3.57;2.40;;;5.50;30.80;;;;;;10429860;28;20244;-71
2023/03/17 05:31:00;;;;;;;2.13;1.93;;;5.50;30.90;;;;;;10428793;28;20228;-72
2023/03/17 05:36:04;;;;;;;2.47;2.20;;;5.50;30.70;;;;;;10428244;28;20686;-72
2023/03/17 05:41:09;;;;;;;2.80;2.10;;;5.50;30.80;;;;;;10431313;28;20221;-73
2023/03/17 05:46:12;;;;;;;2.30;2.10;;;5.50;31.00;;;;;;10420823;28;20599;-72
2023/03/17 05:51:16;;;;;;;2.33;2.13;;;5.50;30.90;;;;;;10424770;28;20231;-72
2023/03/17 05:56:20;;;;;;;4.07;2.00;;;5.50;30.90;;;;;;10427428;28;20228;-72
2023/03/17 06:01:23;;;;;;;2.43;2.23;;;5.50;31.20;;;;;;10423575;28;20235;-72
2023/03/17 06:06:27;;;;;;;3.07;2.27;;;5.50;31.20;;;;;;10420383;28;20241;-72
2023/03/17 06:11:32;;;;;;;2.53;2.23;;;5.50;31.20;;;;;;10417384;28;20737;-71
2023/03/17 06:16:35;;;;;;;2.93;2.60;;;5.50;31.40;;;;;;10414664;28;20286;-72
2023/03/17 06:21:38;;;;;;;4.17;3.23;;;5.50;31.10;;;;;;10421993;28;20323;-72
2023/03/17 06:26:43;;;;;;;2.70;2.50;;;5.60;32.10;;;;;;10429522;28;20235;-72
2023/03/17 06:31:49;;;;;;;3.77;2.50;;;5.60;32.00;;;;;;10426188;28;20246;-72
2023/03/17 06:36:52;;;;;;;3.80;3.50;;;5.70;31.60;;;;;;10422369;28;20616;-72
2023/03/17 06:41:57;;;;;;;3.70;3.03;;;5.80;31.40;;;;;;10413758;28;20228;-72
2023/03/17 06:47:00;;;;;;;3.50;3.00;;;5.80;31.60;;;;;;10427268;28;20237;-73
2023/03/17 06:52:04;;;;;;;4.03;2.50;;;5.80;31.40;;;;;;10431688;28;20228;-69
2023/03/17 06:57:09;;;;;;;3.47;2.87;;;5.90;34.10;;;;;;10441130;28;20225;-73
2023/03/17 07:02:12;;;;;;;3.47;3.17;;;6.10;34.10;;;;;;10441119;28;20229;-72
2023/03/17 07:07:15;;;;;;;3.07;2.77;;;6.30;33.00;;;;;;10427007;28;20231;-72
2023/03/17 07:12:20;;;;;;;5.57;3.37;;;6.40;32.50;;;;;;10431710;28;20244;-71
2023/03/17 07:17:24;;;;;;;4.50;3.20;;;6.50;32.40;;;;;;10439550;28;20235;-71
2023/03/17 07:22:27;;;;;;;3.50;3.20;;;6.50;32.00;;;;;;10438468;28;20252;-71
2023/03/17 07:27:31;;;;;;;3.37;3.07;;;6.60;32.20;;;;;;10439498;28;20362;-73
2023/03/17 07:32:36;;;;;;;3.63;3.00;;;6.60;32.10;;;;;;10437102;28;20599;-71
2023/03/17 07:37:39;;;;;;;3.37;2.67;;;6.70;32.40;;;;;;10432668;28;20324;-70
2023/03/17 07:42:44;;;;;;;3.23;2.83;;;6.70;32.90;;;;;;10428503;28;20229;-70
2023/03/17 07:47:47;;;;;;;2.70;2.43;;;6.80;32.80;;;;;;10435052;28;20232;-70
2023/03/17 07:52:50;;;;;;;2.93;2.67;;;6.90;32.70;;;;;;10433015;28;21131;-69
2023/03/17 07:57:54;;;;;;;2.90;2.60;;;7.10;33.00;;;;;;10436270;28;20239;-69
2023/03/17 08:02:58;;;;;;;4.90;2.60;;;7.20;32.70;;;;;;10433415;28;20225;-70
2023/03/17 08:08:12;;;;;;;3.20;2.43;;;7.50;32.70;;;;;;10434848;28;20225;-70
2023/03/17 08:13:18;;;;;;;4.23;2.53;;;7.80;33.00;;;;;;10436656;28;20233;-70
2023/03/17 08:18:21;;;;;;;2.63;2.43;;;8.20;32.70;;;;;;10421226;28;20892;-71
2023/03/17 08:23:25;;;;;;;2.40;2.00;;;8.50;32.70;;;;;;10424043;28;20710;-70
2023/03/17 08:28:31;;;;;;;3.97;2.17;;;8.90;32.70;;;;;;10407948;28;20238;-70
2023/03/17 08:33:34;;;;;;;3.10;2.00;;;9.20;32.30;;;;;;10424926;28;20236;-70
2023/03/17 08:38:39;;;;;;;3.87;2.20;;;9.50;32.30;;;;;;10427181;28;20248;-70
2023/03/17 08:43:44;;;;;;;2.40;2.03;;;9.80;31.90;;;;;;10427365;28;20222;-70
2023/03/17 08:48:49;;;;;;;2.60;2.20;;;10.10;30.70;;;;;;10420512;28;20236;-68
2023/03/17 08:53:53;;;;;;;2.20;2.03;;;10.40;30.50;;;;;;10421021;28;20254;-69
2023/03/17 08:58:58;;;;;;;2.30;2.10;;;10.70;30.60;;;;;;10423731;28;20224;-69
2023/03/17 09:04:02;;;;;;;3.37;2.40;;;10.90;30.20;;;;;;10423478;28;20288;-69
2023/03/17 09:09:05;;;;;;;2.87;2.30;;;11.10;30.00;;;;;;10428385;28;20220;-68
2023/03/17 09:14:10;;;;;;;2.27;2.10;;;11.30;30.90;;;;;;10430723;28;20279;-68
2023/03/17 09:19:13;;;;;;;2.17;2.00;;;11.60;30.00;;;;;;10434853;28;20234;-69
2023/03/17 09:24:17;;;;;;;2.97;2.27;;;11.80;29.90;;;;;;10432947;28;20225;-69
2023/03/17 09:29:22;;;;;;;2.23;2.00;;;12.00;29.70;;;;;;10431289;28;20232;-69
2023/03/17 09:34:25;;;;;;;2.63;2.00;;;12.20;29.80;;;;;;10431426;28;20716;-70
2023/03/17 09:39:28;;;;;;;2.87;1.83;;;12.40;30.00;;;;;;10431762;28;20221;-71
2023/03/17 09:44:52;;;;;;;1.80;1.70;;;12.50;29.70;;;;;;10429550;28;20237;-69
2023/03/17 09:49:58;;;;;;;2.03;1.87;;;12.70;28.50;;;;;;10432361;28;20237;-69
2023/03/17 09:55:07;;;;;;;2.50;2.07;;;12.80;29.30;;;;;;10433437;28;20795;-69
2023/03/17 10:00:18;;;;;;;2.10;1.90;;;13.00;29.20;;;;;;10430670;28;20649;-69
2023/03/17 10:05:23;;;;;;;1.83;1.73;;;13.20;28.90;;;;;;10431898;28;20225;-69
2023/03/17 10:10:35;;;;;;;1.63;1.53;;;13.40;29.20;;;;;;10429811;28;20233;-69
2023/03/17 10:15:48;;;;;;;4.27;2.20;;;13.60;28.90;;;;;;10430323;28;20229;-69
2023/03/17 10:20:56;;;;;;;1.97;1.53;;;13.80;29.00;;;;;;10429581;28;20256;-70
2023/03/17 10:26:05;;;;;;;2.57;1.80;;;13.90;28.60;;;;;;10428897;28;20226;-70
2023/03/17 10:31:15;;;;;;;1.80;1.70;;;14.10;28.80;;;;;;10427955;28;20225;-69
2023/03/17 10:36:33;;;;;;;2.10;1.90;;;14.30;28.20;;;;;;10434381;28;20225;-70
2023/03/17 10:41:40;;;;;;;4.43;1.97;;;14.40;27.60;;;;;;10431582;28;20228;-70
2023/03/17 10:46:54;;;;;;;2.27;2.07;;;14.60;27.20;;;;;;10427650;28;20233;-70
2023/03/17 10:51:57;;;;;;;2.57;1.90;;;14.80;27.20;;;;;;10427750;28;20243;-70
2023/03/17 10:57:05;;;;;;;2.37;2.00;;;14.90;27.80;;;;;;10429950;28;20726;-69
2023/03/17 11:02:20;;;;;;;2.00;1.80;;;15.00;27.00;;;;;;10428754;28;20236;-69
2023/03/17 11:07:30;;;;;;;2.00;1.90;;;15.20;26.90;;;;;;10427055;28;20239;-69
2023/03/17 11:12:38;;;;;;;2.20;2.00;;;15.30;26.40;;;;;;10429041;28;20237;-69
2023/03/17 11:17:53;;;;;;;3.63;2.30;;;15.50;26.80;;;;;;10431412;28;20236;-69
2023/03/17 11:23:03;;;;;;;2.40;2.10;;;15.50;26.60;;;;;;10427214;28;20232;-69
2023/03/17 11:28:18;;;;;;;1.90;1.80;;;15.70;26.60;;;;;;10431112;28;20222;-68
2023/03/17 11:33:33;;;;;;;2.27;2.07;;;15.80;25.80;;;;;;10426876;28;20328;-69
2023/03/17 11:38:43;;;;;;;2.13;1.80;;;16.00;25.80;;;;;;10431220;28;20232;-69
2023/03/17 11:44:05;;;;;;;3.90;1.93;;;16.10;26.20;;;;;;10430069;28;20399;-69
2023/03/17 11:49:13;;;;;;;1.80;1.70;;;16.20;25.80;;;;;;10415828;28;20310;-72
2023/03/17 11:54:30;;;;;;;1.87;1.77;;;16.30;26.20;;;;;;10423493;28;20672;-72
2023/03/17 11:59:39;;;;;;;2.30;1.90;;;16.50;26.80;;;;;;10427538;28;20225;-72
2023/03/17 12:04:52;;;;;;;3.53;1.83;;;16.60;26.50;;;;;;10431272;28;20400;-72
2023/03/17 12:10:04;;;;;;;2.10;1.90;;;16.70;25.80;;;;;;10429152;28;20231;-72
2023/03/17 12:15:19;;;;;;;1.63;1.53;;;16.80;25.90;;;;;;10428114;28;20696;-72
2023/03/17 12:20:31;;;;;;;1.87;1.77;;;16.90;25.90;;;;;;10426168;28;20231;-73
2023/03/17 12:25:42;;;;;;;1.87;1.70;;;17.10;25.50;;;;;;10425822;28;20300;-73
2023/03/17 12:30:50;;;;;;;2.70;1.70;;;17.10;25.70;;;;;;10424349;28;21239;-73
2023/03/17 12:35:55;;;;;;;2.13;1.60;;;17.30;26.10;;;;;;10422564;28;20735;-73
2023/03/17 12:41:15;;;;;;;2.73;1.70;;;17.30;25.90;;;;;;10429492;28;20225;-73
2023/03/17 12:46:37;;;;;;;1.53;1.43;;;17.40;25.40;;;;;;10431161;28;20217;-73
2023/03/17 12:51:55;;;;;;;1.63;1.53;;;17.50;24.00;;;;;;10429159;28;20240;-73
2023/03/17 12:57:04;;;;;;;2.10;1.40;;;17.60;25.60;;;;;;10431863;28;20232;-75
2023/03/17 13:02:16;;;;;;;1.63;1.50;;;17.70;25.30;;;;;;10430528;28;20229;-73
2023/03/17 13:07:25;;;;;;;1.93;1.60;;;17.80;24.10;;;;;;10430624;28;20224;-73
2023/03/17 13:13:04;;;;;;;1.53;1.43;;;17.90;24.00;;;;;;10431481;28;20739;-74
2023/03/17 13:18:37;;;;;;;1.67;1.57;;;18.00;24.00;;;;;;10434176;28;20677;-72
2023/03/17 13:23:43;;;;;;;2.57;1.63;;;18.10;24.50;;;;;;10419310;28;20225;-72
2023/03/17 13:28:49;;;;;;;1.93;1.70;;;18.20;25.50;;;;;;10432394;28;20247;-74
2023/03/17 13:33:55;;;;;;;1.43;1.33;;;18.30;24.80;;;;;;10433153;28;20287;-74
2023/03/17 13:39:27;;;;;;;1.70;1.60;;;18.30;24.90;;;;;;10430471;28;21631;-74
2023/03/17 13:45:06;;;;;;;2.70;1.50;;;18.40;24.60;;;;;;10431252;28;20235;-74
2023/03/17 13:50:14;;;;;;;1.70;1.60;;;18.50;24.30;;;;;;10429688;28;20787;-70
2023/03/17 13:55:39;;;;;;;2.03;1.80;;;18.60;24.40;;;;;;10427252;28;20225;-73
2023/03/17 14:00:46;;;;;;;1.63;1.53;;;18.60;24.00;;;;;;10424785;28;20302;-72
2023/03/17 14:05:51;;;;;;;1.73;1.60;;;18.70;24.60;;;;;;10430932;28;20338;-75
2023/03/17 14:10:59;;;;;;;1.77;1.67;;;18.70;24.60;;;;;;10434545;28;20524;-75
2023/03/17 14:16:06;;;;;;;2.10;1.63;;;18.70;24.40;;;;;;10428245;28;20312;-75
2023/03/17 14:21:22;;;;;;;1.70;1.60;;;18.80;24.50;;;;;;10431469;28;20225;-75
2023/03/17 14:26:29;;;;;;;1.70;1.60;;;18.80;24.50;;;;;;10428483;28;20705;-75
2023/03/17 14:31:33;;;;;;;3.03;1.70;;;18.90;24.60;;;;;;10430039;28;20236;-75
2023/03/17 14:36:37;;;;;;;1.67;1.57;;;19.00;24.90;;;;;;10429886;28;20311;-75
2023/03/17 14:41:42;;;;;;;1.80;1.70;;;19.00;24.60;;;;;;10425619;28;20245;-74
2023/03/17 14:46:45;;;;;;;2.77;1.80;;;19.10;24.70;;;;;;10429343;28;20693;-75
2023/03/17 14:51:52;;;;;;;1.97;1.70;;;19.10;24.70;;;;;;10424318;28;20938;-75
2023/03/17 14:57:01;;;;;;;1.53;1.43;;;19.10;24.40;;;;;;10421862;28;20601;-75
2023/03/17 15:02:17;;;;;;;1.50;1.40;;;19.10;24.00;;;;;;10426627;28;20618;-74
2023/03/17 15:07:35;;;;;;;2.37;1.60;;;19.10;23.50;;;;;;10425799;28;20274;-74
2023/03/17 15:12:40;;;;;;;1.60;1.50;;;19.20;22.90;;;;;;10435377;28;20823;-75
2023/03/17 15:17:44;;;;;;;1.70;1.60;;;19.20;24.50;;;;;;10434961;28;21059;-72
2023/03/17 15:22:49;;;;;;;1.80;1.70;;;19.20;24.80;;;;;;10437841;28;20233;-72
2023/03/17 15:27:53;;;;;;;2.20;2.00;;;19.30;24.80;;;;;;10434250;28;20243;-71
2023/03/17 15:33:00;;;;;;;2.90;1.90;;;19.30;23.90;;;;;;10436131;28;20220;-71
2023/03/17 15:38:03;;;;;;;1.90;1.80;;;19.30;23.10;;;;;;10431510;28;20383;-71
2023/03/17 15:43:13;;;;;;;4.00;1.83;;;19.30;24.00;;;;;;10425523;28;20239;-69
2023/03/17 15:48:21;;;;;;;1.70;1.60;;;19.30;23.40;;;;;;10437243;28;20225;-71
2023/03/17 15:53:24;;;;;;;1.80;1.70;;;19.30;23.20;;;;;;10429485;28;20232;-71
2023/03/17 15:58:29;;;;;;;3.27;2.93;;;19.30;24.10;;;;;;10431183;28;20220;-71
2023/03/17 16:03:34;;;;;;;2.10;2.00;;;19.30;23.80;;;;;;10432346;28;20567;-73
2023/03/17 16:08:37;;;;;;;1.80;1.70;;;19.30;23.90;;;;;;10433337;28;20226;-70
2023/03/17 16:13:42;;;;;;;2.30;2.10;;;19.40;24.10;;;;;;10435921;28;20240;-71
2023/03/17 16:18:46;;;;;;;3.20;2.17;;;19.30;22.90;;;;;;10434230;28;20248;-71
2023/03/17 16:23:49;;;;;;;5.37;4.97;;;19.30;23.60;;;;;;10432890;28;20235;-70
2023/03/17 16:28:54;;;;;;;3.13;2.93;;;19.30;23.80;;;;;;10431455;28;20657;-71
2023/03/17 16:33:57;;;;;;;4.20;2.80;;;19.20;23.50;;;;;;10432824;28;20247;-71
2023/03/17 16:39:00;;;;;;;9.57;7.17;;;19.20;23.70;;;;;;10430222;28;20229;-70
2023/03/17 16:44:08;;;;;;;3.97;3.67;;;19.10;23.80;;;;;;10428439;28;20693;-70
2023/03/17 16:49:14;;;;;;;3.20;2.90;;;19.00;23.50;;;;;;10431007;28;20262;-71
2023/03/17 16:54:19;;;;;;;3.73;2.50;;;19.00;23.60;;;;;;10433238;28;20732;-74
2023/03/17 16:59:29;;;;;;;16.63;4.00;;;18.90;23.80;;;;;;10434737;28;20316;-70
2023/03/17 17:04:37;;;;;;;5.97;3.13;;;18.90;23.70;;;;;;10430771;28;20228;-71
2023/03/17 17:09:40;;;;;;;4.60;3.63;;;18.90;24.60;;;;;;10432045;28;20221;-74
2023/03/17 17:14:45;;;;;;;3.47;2.70;;;18.80;24.50;;;;;;10422094;28;20240;-73
2023/03/17 17:19:48;;;;;;;2.30;1.60;;;18.80;24.20;;;;;;10420386;28;20610;-73
2023/03/17 17:24:51;;;;;;;3.50;1.90;;;18.80;24.20;;;;;;10440537;22;20243;-71
2023/03/17 17:29:55;;;;;;;2.40;1.87;;;18.70;24.40;;;;;;10404293;28;20279;-70
2023/03/17 17:34:59;;;;;;;2.10;1.77;;;18.60;24.10;;;;;;10400680;28;20276;-70
2023/03/17 17:40:03;;;;;;;1.90;1.70;;;18.50;24.30;;;;;;10384834;28;20231;-70
2023/03/17 17:45:09;;;;;;;2.37;2.00;;;18.30;24.20;;;;;;10420774;28;20234;-70
2023/03/17 17:50:18;;;;;;;2.47;1.80;;;18.10;24.10;;;;;;10393763;28;20222;-70
2023/03/17 17:55:21;;;;;;;3.80;1.83;;;18.00;24.00;;;;;;10384713;28;20712;-70
2023/03/17 18:00:26;;;;;;;1.87;1.77;;;17.80;23.80;;;;;;10395297;28;20706;-70
2023/03/17 18:05:31;;;;;;;2.30;2.10;;;17.70;24.10;;;;;;10402167;28;20237;-70
2023/03/17 18:10:34;;;;;;;2.93;2.47;;;17.50;24.20;;;;;;10389605;28;20292;-70
2023/03/17 18:15:39;;;;;;;3.87;2.80;;;17.30;24.20;;;;;;10385683;28;20230;-70
2023/03/17 18:20:42;;;;;;;2.90;2.70;;;17.20;24.30;;;;;;10387567;28;20234;-70
2023/03/17 18:25:45;;;;;;;3.80;2.80;;;17.00;24.40;;;;;;10390785;28;20242;-70
2023/03/17 18:30:50;;;;;;;3.40;3.10;;;16.80;24.50;;;;;;10403701;28;20298;-69
2023/03/17 18:35:54;;;;;;;4.00;3.60;;;16.60;24.70;;;;;;10381533;28;20229;-70
2023/03/17 18:40:57;;;;;;;5.90;5.30;;;16.50;24.70;;;;;;10384125;28;20275;-70
2023/03/17 18:46:02;;;;;;;4.97;4.57;;;16.40;24.90;;;;;;10397826;28;20295;-70
2023/03/17 18:51:05;;;;;;;13.83;12.47;;;16.20;24.90;;;;;;10399751;28;20221;-70
2023/03/17 18:56:09;;;;;;;19.03;16.23;;;16.10;25.00;;;;;;10414149;28;20233;-69
2023/03/17 19:01:15;;;;;;;14.93;12.90;;;15.90;24.90;;;;;;10413688;28;20229;-70
2023/03/17 19:06:19;;;;;;;12.23;10.80;;;15.70;25.20;;;;;;10392736;28;20772;-70
2023/03/17 19:11:23;;;;;;;12.67;10.90;;;15.50;25.30;;;;;;10406017;28;20229;-70
2023/03/17 19:16:29;;;;;;;10.17;9.23;;;15.40;25.30;;;;;;10400840;28;20229;-70
2023/03/17 19:21:33;;;;;;;10.73;9.73;;;15.30;25.60;;;;;;10391853;28;20230;-70
2023/03/17 19:26:36;;;;;;;10.10;9.07;;;15.20;25.50;;;;;;10403360;28;20248;-69
2023/03/17 19:31:41;;;;;;;11.43;10.23;;;15.20;25.60;;;;;;10390112;28;20240;-70
2023/03/17 19:36:45;;;;;;;9.33;8.43;;;15.10;25.70;;;;;;10386535;28;20245;-70
2023/03/17 19:41:52;;;;;;;11.30;9.43;;;15.00;25.60;;;;;;10408912;28;20695;-69
2023/03/17 19:46:56;;;;;;;11.60;9.20;;;14.90;25.70;;;;;;10403000;28;20276;-69
2023/03/17 19:52:00;;;;;;;12.70;9.97;;;14.80;25.80;;;;;;10392354;28;20234;-70
2023/03/17 19:57:04;;;;;;;11.23;8.90;;;14.60;25.60;;;;;;10384755;28;20588;-68
2023/03/17 20:02:11;;;;;;;8.83;7.93;;;14.50;25.80;;;;;;10382217;28;20249;-69
2023/03/17 20:07:15;;;;;;;8.30;7.50;;;14.30;26.00;;;;;;10393926;28;20903;-68
2023/03/17 20:12:18;;;;;;;7.23;6.50;;;14.20;26.00;;;;;;10379678;28;20694;-69
2023/03/17 20:17:23;;;;;;;6.90;6.20;;;14.20;26.00;;;;;;10389999;28;21759;-70
2023/03/17 20:22:26;;;;;;;7.20;6.50;;;14.10;26.30;;;;;;10391287;28;20724;-69
2023/03/17 20:27:30;;;;;;;6.10;5.00;;;14.00;26.20;;;;;;10400294;28;20221;-69
2023/03/17 20:32:35;;;;;;;5.53;4.10;;;13.90;26.10;;;;;;10396821;28;20703;-70
2023/03/17 20:37:38;;;;;;;5.43;4.70;;;13.80;26.20;;;;;;10413475;28;20299;-70
2023/03/17 20:42:42;;;;;;;4.57;4.17;;;13.50;26.00;;;;;;10405517;28;20226;-69
2023/03/17 20:47:48;;;;;;;4.43;4.03;;;13.30;26.20;;;;;;10389511;28;20230;-69
2023/03/17 20:52:51;;;;;;;5.27;4.20;;;13.00;26.70;;;;;;10396869;28;20313;-70
2023/03/17 20:57:57;;;;;;;5.50;5.00;;;12.90;26.60;;;;;;10375247;28;20238;-70
2023/03/17 21:03:02;;;;;;;5.50;5.00;;;12.90;26.70;;;;;;10396556;28;20226;-69
2023/03/17 21:08:06;;;;;;;5.30;4.80;;;12.80;26.80;;;;;;10391016;28;20221;-69
2023/03/17 21:13:09;;;;;;;5.60;5.10;;;12.70;26.60;;;;;;10397512;28;20228;-69
2023/03/17 21:18:14;;;;;;;6.63;6.03;;;12.50;26.70;;;;;;10424953;28;20236;-70
2023/03/17 21:23:17;;;;;;;6.63;5.57;;;12.50;27.10;;;;;;10365687;28;20631;-70
2023/03/17 21:28:22;;;;;;;7.13;6.43;;;12.40;26.90;;;;;;10383607;28;20241;-70
2023/03/17 21:33:26;;;;;;;7.13;6.20;;;12.40;26.90;;;;;;10393126;28;20264;-70
2023/03/17 21:38:29;;;;;;;6.30;5.47;;;12.30;27.00;;;;;;10419351;28;20230;-70
2023/03/17 21:43:33;;;;;;;7.07;6.37;;;12.20;26.80;;;;;;10408622;28;20333;-70
2023/03/17 21:48:37;;;;;;;6.00;5.40;;;12.20;27.00;;;;;;10396357;28;20240;-70
2023/03/17 21:53:40;;;;;;;7.67;6.07;;;12.00;27.00;;;;;;10389931;28;20241;-70
2023/03/17 21:58:44;;;;;;;8.10;7.30;;;11.80;27.00;;;;;;10374982;28;20303;-70
2023/03/17 22:03:49;;;;;;;7.83;6.90;;;11.50;27.10;;;;;;10382988;28;20235;-70
2023/03/17 22:08:52;;;;;;;9.43;8.20;;;11.40;27.50;;;;;;10390961;28;20245;-71
2023/03/17 22:13:57;;;;;;;11.10;8.53;;;11.30;27.30;;;;;;10401726;28;20229;-67
2023/03/17 22:19:02;;;;;;;8.10;7.30;;;11.20;27.40;;;;;;10392644;28;20737;-68
2023/03/17 22:24:06;;;;;;;7.87;7.07;;;11.10;27.60;;;;;;10395419;28;20221;-70
2023/03/17 22:29:09;;;;;;;9.83;8.83;;;11.00;27.60;;;;;;10390487;28;20728;-68
2023/03/17 22:34:14;;;;;;;8.43;7.63;;;10.90;27.60;;;;;;10391660;28;20271;-68
2023/03/17 22:39:17;;;;;;;13.53;11.57;;;10.80;27.90;;;;;;10393341;28;20247;-68
2023/03/17 22:44:20;;;;;;;13.40;9.60;;;10.70;27.90;;;;;;10390385;28;20896;-69
2023/03/17 22:49:25;;;;;;;8.97;7.27;;;10.60;27.90;;;;;;10392035;28;20238;-67
2023/03/17 22:54:28;;;;;;;8.77;6.67;;;10.50;28.30;;;;;;10389125;28;20233;-68
2023/03/17 22:59:31;;;;;;;7.47;6.27;;;10.50;28.00;;;;;;10389451;28;20248;-68
2023/03/17 23:04:36;;;;;;;15.43;10.30;;;10.40;28.00;;;;;;10387512;28;20229;-68
2023/03/17 23:09:40;;;;;;;13.77;9.63;;;10.40;28.40;;;;;;10387662;28;20229;-67
2023/03/17 23:14:43;;;;;;;17.20;10.33;;;10.30;28.20;;;;;;10387996;28;20222;-67
2023/03/17 23:19:48;;;;;;;17.87;10.33;;;10.30;28.10;;;;;;10390141;28;20897;-68
2023/03/17 23:24:52;;;;;;;12.13;8.03;;;10.30;28.50;;;;;;10387426;28;20229;-68
2023/03/17 23:29:55;;;;;;;10.97;6.40;;;10.30;28.20;;;;;;10388963;28;20230;-67
2023/03/17 23:35:00;;;;;;;8.43;5.67;;;10.30;28.30;;;;;;10396482;28;20726;-68
2023/03/17 23:40:05;;;;;;;5.40;4.77;;;10.20;28.50;;;;;;10396801;28;20746;-67
2023/03/17 23:45:09;;;;;;;5.90;5.17;;;10.20;28.40;;;;;;10403227;28;20693;-70
2023/03/17 23:50:15;;;;;;;5.30;4.80;;;10.20;28.50;;;;;;10395726;28;20225;-70
2023/03/17 23:55:19;;;;;;;5.90;4.73;;;10.10;28.40;;;;;;10400396;28;20230;-68
